CDT,Max TemperatureF,Mean TemperatureF,Min TemperatureF,Max Dew PointF,MeanDew PointF,Min DewpointF,Max Humidity, Mean Humidity, Min Humidity, Max Sea Level PressureIn, Mean Sea Level PressureIn, Min Sea Level PressureIn, Max VisibilityMiles, Mean VisibilityMiles, Min VisibilityMiles, Max Wind SpeedMPH, Mean Wind SpeedMPH, Max Gust SpeedMPH,PrecipitationIn, CloudCover, Events, WindDirDegrees
2012-10-1,69,56,42,48,36,25,67,43,21,30.05,29.99,29.89,10,10,5,28,15,37,0.00,1,,337
2012-10-2,73,52,32,34,28,25,75,42,18,29.98,29.87,29.76,10,10,7,21,7,30,0.00,0,,170
2012-10-3,78,60,41,36,30,25,57,34,17,29.85,29.79,29.67,10,10,10,16,9,22,0.00,0,,121
2012-10-4,64,50,35,43,34,30,93,73,32,30.20,30.01,29.67,10,9,1,36,24,48,0.00,7,Rain,303
2012-10-5,42,35,28,28,27,25,86,70,53,30.24,30.20,30.17,10,10,10,26,17,32,0.00,4,,307
2012-10-6,44,34,24,30,25,18,87,68,39,30.34,30.28,30.22,10,10,7,21,13,23,0.00,5,,320
2012-10-7,57,39,21,25,20,18,86,52,23,30.21,29.99,29.79,10,10,10,18,8,25,0.00,0,,204
2012-10-8,62,48,33,41,30,19,70,54,42,29.79,29.66,29.55,10,10,7,30,10,36,0.00,4,Rain,213
2012-10-9,44,40,35,34,28,21,70,58,45,30.01,29.85,29.71,10,10,10,28,13,36,0.00,6,,299
2012-10-10,53,40,26,30,26,23,93,57,30,30.06,29.96,29.77,10,10,10,15,8,24,0.00,3,,249
2012-10-11,48,37,24,36,27,16,93,62,34,30.39,30.16,29.79,10,10,10,23,11,28,0.00,2,,344
2012-10-12,55,36,17,23,17,12,86,51,22,30.40,30.22,29.87,10,10,10,28,9,33,0.00,2,,154
2012-10-13,64,54,44,45,41,19,81,60,26,29.86,29.72,29.65,10,10,7,25,11,29,0.00,2,,188
2012-10-14,57,46,35,37,33,28,81,64,38,29.93,29.86,29.77,10,10,10,24,12,29,0.00,0,,327
2012-10-15,66,46,26,39,34,23,93,59,35,29.93,29.81,29.61,10,10,10,22,8,26,0.00,1,,165
2012-10-16,73,62,50,46,43,39,67,51,36,29.62,29.46,29.30,10,10,2,9,6,,0.00,2,,181
2012-10-17,57,50,44,52,45,39,94,83,59,29.30,29.22,29.14,10,9,4,25,13,33,0.52,7,Rain,299
2012-10-18,48,44,41,46,43,39,100,93,81,29.46,29.27,29.15,10,5,2,34,20,46,0.50,8,Rain,318
2012-10-19,42,40,39,43,40,39,100,93,87,29.75,29.66,29.48,10,7,2,31,23,40,0.17,8,Rain,330
2012-10-20,51,43,35,46,42,36,100,91,76,29.76,29.72,29.67,10,8,0,17,7,22,0.00,5,Fog,160
2012-10-21,55,50,44,48,45,43,100,88,77,29.96,29.80,29.68,10,9,4,17,12,20,0.00,2,,29
2012-10-22,60,51,42,48,46,41,100,80,59,30.00,29.93,29.83,10,10,10,15,11,20,0.00,5,,58
2012-10-23,59,54,50,57,53,46,100,94,82,29.83,29.71,29.64,10,3,0,13,8,,0.00,8,Fog,141
2012-10-24,55,46,37,54,41,34,100,86,76,29.94,29.88,29.79,10,10,4,24,13,31,0.00,6,,336
2012-10-25,37,35,33,34,29,25,100,80,65,30.17,29.98,29.88,10,8,1,29,20,37,0.00,7,Snow,318
2012-10-26,39,36,32,27,25,21,80,66,52,30.34,30.30,30.18,10,10,10,22,14,30,0.00,8,,279
2012-10-27,42,32,21,27,24,21,100,70,49,30.33,30.28,30.23,10,10,10,13,5,,0.00,4,,199
2012-10-28,46,40,33,34,31,28,87,75,57,30.26,30.22,30.17,10,9,3,15,8,,0.00,6,Snow,149
2012-10-29,51,43,35,30,29,27,81,63,44,30.19,30.16,30.13,10,10,10,23,15,28,0.00,3,,135
2012-10-30,44,40,35,30,28,27,75,63,49,30.18,30.13,30.07,10,10,10,17,10,,0.00,5,,128
2012-10-31,57,45,33,39,33,28,87,69,44,30.07,29.99,29.92,10,10,5,21,4,25,0.00,4,,171